sensor_id;sensor_type;location;lat;lon;timestamp;P1;durP1;ratioP1;P2;durP2;ratioP2
65145;SDS011;51730;56.950;24.126;2022-11-20T00:00:18;15.52;;;7.50;;
65145;SDS011;51730;56.950;24.126;2022-11-20T00:02:45;15.13;;;6.85;;
65145;SDS011;51730;56.950;24.126;2022-11-20T00:05:12;15.98;;;8.05;;
65145;SDS011;51730;56.950;24.126;2022-11-20T00:07:39;15.73;;;7.40;;
65145;SDS011;51730;56.950;24.126;2022-11-20T00:10:06;13.40;;;7.30;;
65145;SDS011;51730;56.950;24.126;2022-11-20T00:12:34;15.27;;;8.43;;
65145;SDS011;51730;56.950;24.126;2022-11-20T00:15:01;12.98;;;6.95;;
65145;SDS011;51730;56.950;24.126;2022-11-20T00:17:28;13.90;;;7.20;;
65145;SDS011;51730;56.950;24.126;2022-11-20T00:19:55;10.48;;;6.20;;
65145;SDS011;51730;56.950;24.126;2022-11-20T00:22:21;9.05;;;5.25;;
65145;SDS011;51730;56.950;24.126;2022-11-20T00:24:48;9.98;;;5.93;;
65145;SDS011;51730;56.950;24.126;2022-11-20T00:27:15;10.40;;;5.95;;
65145;SDS011;51730;56.950;24.126;2022-11-20T00:29:42;9.52;;;5.45;;
65145;SDS011;51730;56.950;24.126;2022-11-20T00:32:09;11.88;;;5.35;;
65145;SDS011;51730;56.950;24.126;2022-11-20T00:34:36;8.32;;;5.57;;
65145;SDS011;51730;56.950;24.126;2022-11-20T00:37:03;7.35;;;4.72;;
65145;SDS011;51730;56.950;24.126;2022-11-20T00:39:29;9.48;;;5.50;;
65145;SDS011;51730;56.950;24.126;2022-11-20T00:41:56;8.73;;;5.07;;
65145;SDS011;51730;56.950;24.126;2022-11-20T00:44:23;10.95;;;5.65;;
65145;SDS011;51730;56.950;24.126;2022-11-20T00:46:50;10.80;;;5.18;;
65145;SDS011;51730;56.950;24.126;2022-11-20T00:49:17;12.63;;;6.57;;
65145;SDS011;51730;56.950;24.126;2022-11-20T00:51:45;11.52;;;5.30;;
65145;SDS011;51730;56.950;24.126;2022-11-20T00:54:12;12.52;;;6.95;;
65145;SDS011;51730;56.950;24.126;2022-11-20T00:56:39;12.40;;;6.20;;
65145;SDS011;51730;56.950;24.126;2022-11-20T00:59:06;12.50;;;6.47;;
65145;SDS011;51730;56.950;24.126;2022-11-20T01:01:35;12.77;;;6.25;;
65145;SDS011;51730;56.950;24.126;2022-11-20T01:04:03;11.15;;;6.60;;
65145;SDS011;51730;56.950;24.126;2022-11-20T01:06:31;12.48;;;7.63;;
65145;SDS011;51730;56.950;24.126;2022-11-20T01:09:01;12.30;;;7.20;;
65145;SDS011;51730;56.950;24.126;2022-11-20T01:11:33;11.13;;;6.72;;
65145;SDS011;51730;56.950;24.126;2022-11-20T01:14:01;11.93;;;6.60;;
65145;SDS011;51730;56.950;24.126;2022-11-20T01:16:33;8.88;;;5.38;;
65145;SDS011;51730;56.950;24.126;2022-11-20T01:19:03;12.30;;;6.63;;
65145;SDS011;51730;56.950;24.126;2022-11-20T01:21:33;12.85;;;6.40;;
65145;SDS011;51730;56.950;24.126;2022-11-20T01:24:03;13.18;;;6.10;;
65145;SDS011;51730;56.950;24.126;2022-11-20T01:26:32;10.35;;;5.97;;
65145;SDS011;51730;56.950;24.126;2022-11-20T01:29:00;10.70;;;5.95;;
65145;SDS011;51730;56.950;24.126;2022-11-20T01:31:29;10.45;;;6.50;;
65145;SDS011;51730;56.950;24.126;2022-11-20T01:34:02;11.32;;;6.15;;
65145;SDS011;51730;56.950;24.126;2022-11-20T01:36:31;14.20;;;6.72;;
65145;SDS011;51730;56.950;24.126;2022-11-20T01:39:03;13.82;;;6.82;;
65145;SDS011;51730;56.950;24.126;2022-11-20T01:41:43;13.77;;;6.78;;
65145;SDS011;51730;56.950;24.126;2022-11-20T01:47:16;12.00;;;6.80;;
65145;SDS011;51730;56.950;24.126;2022-11-20T01:49:52;13.13;;;6.95;;
65145;SDS011;51730;56.950;24.126;2022-11-20T01:52:38;11.05;;;6.32;;
65145;SDS011;51730;56.950;24.126;2022-11-20T01:55:21;13.02;;;7.05;;
65145;SDS011;51730;56.950;24.126;2022-11-20T01:57:51;12.52;;;6.68;;
65145;SDS011;51730;56.950;24.126;2022-11-20T02:00:19;12.75;;;6.72;;
65145;SDS011;51730;56.950;24.126;2022-11-20T02:02:53;13.20;;;6.88;;
65145;SDS011;51730;56.950;24.126;2022-11-20T02:05:30;11.25;;;6.65;;
65145;SDS011;51730;56.950;24.126;2022-11-20T02:07:58;13.35;;;6.70;;
65145;SDS011;51730;56.950;24.126;2022-11-20T02:10:26;11.98;;;7.63;;
65145;SDS011;51730;56.950;24.126;2022-11-20T02:12:54;11.93;;;7.10;;
65145;SDS011;51730;56.950;24.126;2022-11-20T02:15:40;11.38;;;6.70;;
65145;SDS011;51730;56.950;24.126;2022-11-20T02:18:07;14.07;;;7.05;;
65145;SDS011;51730;56.950;24.126;2022-11-20T02:20:36;12.50;;;6.47;;
65145;SDS011;51730;56.950;24.126;2022-11-20T02:25:38;11.05;;;6.38;;
65145;SDS011;51730;56.950;24.126;2022-11-20T02:28:06;14.50;;;7.05;;
65145;SDS011;51730;56.950;24.126;2022-11-20T02:30:32;11.05;;;5.90;;
65145;SDS011;51730;56.950;24.126;2022-11-20T02:32:59;13.63;;;6.20;;
65145;SDS011;51730;56.950;24.126;2022-11-20T02:37:53;11.68;;;6.88;;
65145;SDS011;51730;56.950;24.126;2022-11-20T02:40:22;12.50;;;6.47;;
65145;SDS011;51730;56.950;24.126;2022-11-20T02:42:56;12.20;;;5.93;;
65145;SDS011;51730;56.950;24.126;2022-11-20T02:45:23;12.77;;;7.03;;
65145;SDS011;51730;56.950;24.126;2022-11-20T02:47:51;12.85;;;7.30;;
65145;SDS011;51730;56.950;24.126;2022-11-20T02:50:18;12.98;;;6.68;;
65145;SDS011;51730;56.950;24.126;2022-11-20T02:52:45;11.25;;;7.00;;
65145;SDS011;51730;56.950;24.126;2022-11-20T02:55:12;14.93;;;6.88;;
65145;SDS011;51730;56.950;24.126;2022-11-20T02:57:39;11.77;;;6.68;;
65145;SDS011;51730;56.950;24.126;2022-11-20T03:00:06;16.45;;;8.35;;
65145;SDS011;51730;56.950;24.126;2022-11-20T03:02:34;19.90;;;8.98;;
65145;SDS011;51730;56.950;24.126;2022-11-20T03:05:01;13.18;;;7.18;;
65145;SDS011;51730;56.950;24.126;2022-11-20T03:07:28;16.02;;;7.72;;
65145;SDS011;51730;56.950;24.126;2022-11-20T03:09:55;13.75;;;7.18;;
65145;SDS011;51730;56.950;24.126;2022-11-20T03:12:22;14.93;;;7.22;;
65145;SDS011;51730;56.950;24.126;2022-11-20T03:14:49;14.45;;;7.43;;
65145;SDS011;51730;56.950;24.126;2022-11-20T03:17:18;14.40;;;7.63;;
65145;SDS011;51730;56.950;24.126;2022-11-20T03:19:45;12.25;;;7.55;;
65145;SDS011;51730;56.950;24.126;2022-11-20T03:22:12;15.00;;;7.82;;
65145;SDS011;51730;56.950;24.126;2022-11-20T03:24:39;14.25;;;7.20;;
65145;SDS011;51730;56.950;24.126;2022-11-20T03:27:06;13.90;;;7.40;;
65145;SDS011;51730;56.950;24.126;2022-11-20T03:29:34;14.55;;;7.35;;
65145;SDS011;51730;56.950;24.126;2022-11-20T03:32:01;13.35;;;7.80;;
65145;SDS011;51730;56.950;24.126;2022-11-20T03:34:28;15.20;;;8.00;;
65145;SDS011;51730;56.950;24.126;2022-11-20T03:36:55;15.30;;;8.32;;
65145;SDS011;51730;56.950;24.126;2022-11-20T03:39:22;13.18;;;8.27;;
65145;SDS011;51730;56.950;24.126;2022-11-20T03:41:49;14.55;;;8.02;;
65145;SDS011;51730;56.950;24.126;2022-11-20T03:44:16;15.00;;;8.38;;
65145;SDS011;51730;56.950;24.126;2022-11-20T03:46:43;13.45;;;7.70;;
65145;SDS011;51730;56.950;24.126;2022-11-20T03:49:10;15.25;;;8.25;;
65145;SDS011;51730;56.950;24.126;2022-11-20T03:51:37;13.35;;;8.05;;
65145;SDS011;51730;56.950;24.126;2022-11-20T03:54:06;17.83;;;8.48;;
65145;SDS011;51730;56.950;24.126;2022-11-20T03:56:35;16.92;;;8.57;;
65145;SDS011;51730;56.950;24.126;2022-11-20T03:59:04;15.00;;;8.48;;
65145;SDS011;51730;56.950;24.126;2022-11-20T04:01:33;14.85;;;7.93;;
65145;SDS011;51730;56.950;24.126;2022-11-20T04:04:01;13.10;;;7.82;;
65145;SDS011;51730;56.950;24.126;2022-11-20T04:06:30;13.93;;;7.95;;
65145;SDS011;51730;56.950;24.126;2022-11-20T04:09:02;15.07;;;7.72;;
65145;SDS011;51730;56.950;24.126;2022-11-20T04:11:30;16.38;;;8.85;;
65145;SDS011;51730;56.950;24.126;2022-11-20T04:14:00;15.55;;;8.35;;
65145;SDS011;51730;56.950;24.126;2022-11-20T04:16:29;14.60;;;8.27;;
65145;SDS011;51730;56.950;24.126;2022-11-20T04:18:58;15.82;;;8.00;;
65145;SDS011;51730;56.950;24.126;2022-11-20T04:21:26;16.33;;;8.57;;
65145;SDS011;51730;56.950;24.126;2022-11-20T04:23:53;12.98;;;8.10;;
65145;SDS011;51730;56.950;24.126;2022-11-20T04:26:22;16.20;;;9.05;;
65145;SDS011;51730;56.950;24.126;2022-11-20T04:28:50;17.67;;;9.00;;
65145;SDS011;51730;56.950;24.126;2022-11-20T04:31:18;14.05;;;8.50;;
65145;SDS011;51730;56.950;24.126;2022-11-20T04:33:48;16.33;;;8.52;;
65145;SDS011;51730;56.950;24.126;2022-11-20T04:36:16;15.27;;;8.20;;
65145;SDS011;51730;56.950;24.126;2022-11-20T04:38:44;15.30;;;8.55;;
65145;SDS011;51730;56.950;24.126;2022-11-20T04:41:15;15.35;;;8.48;;
65145;SDS011;51730;56.950;24.126;2022-11-20T04:43:51;14.35;;;8.30;;
65145;SDS011;51730;56.950;24.126;2022-11-20T04:46:20;14.88;;;8.90;;
65145;SDS011;51730;56.950;24.126;2022-11-20T04:48:47;15.05;;;8.80;;
65145;SDS011;51730;56.950;24.126;2022-11-20T04:51:14;16.50;;;9.50;;
65145;SDS011;51730;56.950;24.126;2022-11-20T04:53:41;16.27;;;9.43;;
65145;SDS011;51730;56.950;24.126;2022-11-20T04:56:09;18.65;;;9.60;;
65145;SDS011;51730;56.950;24.126;2022-11-20T04:58:38;18.40;;;9.07;;
65145;SDS011;51730;56.950;24.126;2022-11-20T05:01:06;19.63;;;9.68;;
65145;SDS011;51730;56.950;24.126;2022-11-20T05:03:37;16.20;;;9.23;;
65145;SDS011;51730;56.950;24.126;2022-11-20T05:06:08;16.63;;;9.17;;
65145;SDS011;51730;56.950;24.126;2022-11-20T05:08:36;15.27;;;8.55;;
65145;SDS011;51730;56.950;24.126;2022-11-20T05:11:05;18.58;;;8.82;;
65145;SDS011;51730;56.950;24.126;2022-11-20T05:13:34;14.93;;;8.60;;
65145;SDS011;51730;56.950;24.126;2022-11-20T05:16:08;14.95;;;8.27;;
65145;SDS011;51730;56.950;24.126;2022-11-20T05:18:43;19.08;;;9.13;;
65145;SDS011;51730;56.950;24.126;2022-11-20T05:21:10;17.67;;;9.18;;
65145;SDS011;51730;56.950;24.126;2022-11-20T05:23:38;18.55;;;8.25;;
65145;SDS011;51730;56.950;24.126;2022-11-20T05:26:06;16.70;;;8.25;;
65145;SDS011;51730;56.950;24.126;2022-11-20T05:28:34;15.30;;;7.90;;
65145;SDS011;51730;56.950;24.126;2022-11-20T05:31:05;14.65;;;8.40;;
65145;SDS011;51730;56.950;24.126;2022-11-20T05:33:36;13.98;;;7.88;;
65145;SDS011;51730;56.950;24.126;2022-11-20T05:36:05;14.32;;;7.95;;
65145;SDS011;51730;56.950;24.126;2022-11-20T05:38:34;14.27;;;7.82;;
65145;SDS011;51730;56.950;24.126;2022-11-20T05:41:07;15.85;;;8.50;;
65145;SDS011;51730;56.950;24.126;2022-11-20T05:43:38;15.05;;;7.68;;
65145;SDS011;51730;56.950;24.126;2022-11-20T05:46:07;13.77;;;7.97;;
65145;SDS011;51730;56.950;24.126;2022-11-20T05:48:35;13.40;;;7.82;;
65145;SDS011;51730;56.950;24.126;2022-11-20T05:51:04;15.77;;;8.00;;
65145;SDS011;51730;56.950;24.126;2022-11-20T05:53:33;16.00;;;8.60;;
65145;SDS011;51730;56.950;24.126;2022-11-20T05:56:10;15.40;;;8.23;;
65145;SDS011;51730;56.950;24.126;2022-11-20T05:58:39;16.30;;;8.23;;
65145;SDS011;51730;56.950;24.126;2022-11-20T06:01:08;16.48;;;8.27;;
65145;SDS011;51730;56.950;24.126;2022-11-20T06:03:37;18.02;;;8.40;;
65145;SDS011;51730;56.950;24.126;2022-11-20T06:06:05;16.90;;;9.55;;
65145;SDS011;51730;56.950;24.126;2022-11-20T06:08:32;14.98;;;8.27;;
65145;SDS011;51730;56.950;24.126;2022-11-20T06:11:03;16.75;;;7.85;;
65145;SDS011;51730;56.950;24.126;2022-11-20T06:13:34;15.95;;;8.73;;
65145;SDS011;51730;56.950;24.126;2022-11-20T06:16:07;16.70;;;9.65;;
65145;SDS011;51730;56.950;24.126;2022-11-20T06:18:34;15.70;;;8.73;;
65145;SDS011;51730;56.950;24.126;2022-11-20T06:21:02;15.75;;;8.63;;
65145;SDS011;51730;56.950;24.126;2022-11-20T06:23:31;16.95;;;8.20;;
65145;SDS011;51730;56.950;24.126;2022-11-20T06:26:08;15.60;;;8.00;;
65145;SDS011;51730;56.950;24.126;2022-11-20T06:28:37;16.10;;;8.75;;
65145;SDS011;51730;56.950;24.126;2022-11-20T06:31:04;16.27;;;8.45;;
65145;SDS011;51730;56.950;24.126;2022-11-20T06:33:32;17.38;;;9.10;;
65145;SDS011;51730;56.950;24.126;2022-11-20T06:35:59;16.75;;;8.32;;
65145;SDS011;51730;56.950;24.126;2022-11-20T06:38:35;18.75;;;8.48;;
65145;SDS011;51730;56.950;24.126;2022-11-20T06:41:03;15.63;;;8.30;;
65145;SDS011;51730;56.950;24.126;2022-11-20T06:43:30;25.35;;;11.98;;
65145;SDS011;51730;56.950;24.126;2022-11-20T06:45:57;23.98;;;10.93;;
65145;SDS011;51730;56.950;24.126;2022-11-20T06:48:26;17.67;;;8.90;;
65145;SDS011;51730;56.950;24.126;2022-11-20T06:50:54;15.23;;;8.23;;
65145;SDS011;51730;56.950;24.126;2022-11-20T06:53:22;15.30;;;9.38;;
65145;SDS011;51730;56.950;24.126;2022-11-20T06:55:49;15.98;;;8.77;;
65145;SDS011;51730;56.950;24.126;2022-11-20T06:58:17;14.68;;;8.23;;
65145;SDS011;51730;56.950;24.126;2022-11-20T07:00:44;15.15;;;8.90;;
65145;SDS011;51730;56.950;24.126;2022-11-20T07:03:11;16.48;;;9.50;;
65145;SDS011;51730;56.950;24.126;2022-11-20T07:05:39;18.58;;;8.45;;
65145;SDS011;51730;56.950;24.126;2022-11-20T07:08:06;16.00;;;8.32;;
65145;SDS011;51730;56.950;24.126;2022-11-20T07:10:33;21.13;;;8.95;;
65145;SDS011;51730;56.950;24.126;2022-11-20T07:13:01;16.60;;;8.68;;
65145;SDS011;51730;56.950;24.126;2022-11-20T07:15:27;15.13;;;8.65;;
65145;SDS011;51730;56.950;24.126;2022-11-20T07:17:54;14.52;;;8.07;;
65145;SDS011;51730;56.950;24.126;2022-11-20T07:20:24;15.60;;;8.55;;
65145;SDS011;51730;56.950;24.126;2022-11-20T07:22:57;11.88;;;7.47;;
65145;SDS011;51730;56.950;24.126;2022-11-20T07:25:24;16.95;;;9.05;;
65145;SDS011;51730;56.950;24.126;2022-11-20T07:27:52;16.92;;;8.68;;
65145;SDS011;51730;56.950;24.126;2022-11-20T07:30:22;18.55;;;9.70;;
65145;SDS011;51730;56.950;24.126;2022-11-20T07:32:52;15.82;;;8.88;;
65145;SDS011;51730;56.950;24.126;2022-11-20T07:35:20;16.90;;;8.18;;
65145;SDS011;51730;56.950;24.126;2022-11-20T07:37:48;24.30;;;12.50;;
65145;SDS011;51730;56.950;24.126;2022-11-20T07:40:15;19.45;;;9.77;;
65145;SDS011;51730;56.950;24.126;2022-11-20T07:42:49;17.35;;;9.15;;
65145;SDS011;51730;56.950;24.126;2022-11-20T07:45:17;19.13;;;8.57;;
65145;SDS011;51730;56.950;24.126;2022-11-20T07:47:44;16.52;;;8.68;;
65145;SDS011;51730;56.950;24.126;2022-11-20T07:50:11;16.52;;;7.85;;
65145;SDS011;51730;56.950;24.126;2022-11-20T07:52:39;14.95;;;8.07;;
65145;SDS011;51730;56.950;24.126;2022-11-20T07:55:07;15.25;;;8.05;;
65145;SDS011;51730;56.950;24.126;2022-11-20T07:57:34;18.05;;;8.52;;
65145;SDS011;51730;56.950;24.126;2022-11-20T08:00:02;14.75;;;7.68;;
65145;SDS011;51730;56.950;24.126;2022-11-20T08:02:30;20.58;;;9.40;;
65145;SDS011;51730;56.950;24.126;2022-11-20T08:04:57;18.50;;;9.38;;
65145;SDS011;51730;56.950;24.126;2022-11-20T08:07:24;18.60;;;8.88;;
65145;SDS011;51730;56.950;24.126;2022-11-20T08:09:51;14.73;;;8.75;;
65145;SDS011;51730;56.950;24.126;2022-11-20T08:12:18;15.55;;;8.68;;
65145;SDS011;51730;56.950;24.126;2022-11-20T08:15:05;18.05;;;9.48;;
65145;SDS011;51730;56.950;24.126;2022-11-20T08:17:38;17.10;;;9.18;;
65145;SDS011;51730;56.950;24.126;2022-11-20T08:20:05;18.35;;;10.07;;
65145;SDS011;51730;56.950;24.126;2022-11-20T08:22:32;19.58;;;10.48;;
65145;SDS011;51730;56.950;24.126;2022-11-20T08:24:59;19.38;;;10.23;;
65145;SDS011;51730;56.950;24.126;2022-11-20T08:27:26;18.52;;;10.23;;
65145;SDS011;51730;56.950;24.126;2022-11-20T08:29:53;18.58;;;9.18;;
65145;SDS011;51730;56.950;24.126;2022-11-20T08:32:20;21.02;;;10.88;;
65145;SDS011;51730;56.950;24.126;2022-11-20T08:34:48;21.13;;;10.77;;
65145;SDS011;51730;56.950;24.126;2022-11-20T08:37:15;21.60;;;11.00;;
65145;SDS011;51730;56.950;24.126;2022-11-20T08:39:42;21.52;;;10.73;;
65145;SDS011;51730;56.950;24.126;2022-11-20T08:42:09;21.15;;;11.15;;
65145;SDS011;51730;56.950;24.126;2022-11-20T08:44:36;26.52;;;11.50;;
65145;SDS011;51730;56.950;24.126;2022-11-20T08:47:03;22.17;;;11.68;;
65145;SDS011;51730;56.950;24.126;2022-11-20T08:49:30;21.60;;;11.00;;
65145;SDS011;51730;56.950;24.126;2022-11-20T08:51:56;19.65;;;10.57;;
65145;SDS011;51730;56.950;24.126;2022-11-20T08:54:23;20.48;;;11.32;;
65145;SDS011;51730;56.950;24.126;2022-11-20T08:56:50;20.38;;;11.18;;
65145;SDS011;51730;56.950;24.126;2022-11-20T08:59:17;22.70;;;10.50;;
65145;SDS011;51730;56.950;24.126;2022-11-20T09:02:04;21.83;;;10.45;;
65145;SDS011;51730;56.950;24.126;2022-11-20T09:04:31;20.60;;;9.77;;
65145;SDS011;51730;56.950;24.126;2022-11-20T09:06:59;24.83;;;11.73;;
65145;SDS011;51730;56.950;24.126;2022-11-20T09:09:26;20.60;;;10.38;;
65145;SDS011;51730;56.950;24.126;2022-11-20T09:11:53;17.90;;;10.52;;
65145;SDS011;51730;56.950;24.126;2022-11-20T09:14:20;22.25;;;11.00;;
65145;SDS011;51730;56.950;24.126;2022-11-20T09:16:47;23.20;;;11.18;;
65145;SDS011;51730;56.950;24.126;2022-11-20T09:19:14;27.42;;;13.20;;
65145;SDS011;51730;56.950;24.126;2022-11-20T09:22:01;27.60;;;13.23;;
65145;SDS011;51730;56.950;24.126;2022-11-20T09:24:28;26.75;;;11.90;;
65145;SDS011;51730;56.950;24.126;2022-11-20T09:26:56;27.67;;;13.40;;
65145;SDS011;51730;56.950;24.126;2022-11-20T09:29:23;25.33;;;13.50;;
65145;SDS011;51730;56.950;24.126;2022-11-20T09:31:49;25.75;;;11.65;;
65145;SDS011;51730;56.950;24.126;2022-11-20T09:34:16;22.63;;;11.15;;
65145;SDS011;51730;56.950;24.126;2022-11-20T09:36:43;22.05;;;12.55;;
65145;SDS011;51730;56.950;24.126;2022-11-20T09:39:11;28.67;;;13.63;;
65145;SDS011;51730;56.950;24.126;2022-11-20T09:53:20;26.60;;;12.55;;
65145;SDS011;51730;56.950;24.126;2022-11-20T09:56:01;24.25;;;12.93;;
65145;SDS011;51730;56.950;24.126;2022-11-20T09:58:47;26.15;;;13.77;;
65145;SDS011;51730;56.950;24.126;2022-11-20T10:01:18;27.05;;;13.10;;
65145;SDS011;51730;56.950;24.126;2022-11-20T10:12:02;23.92;;;12.85;;
65145;SDS011;51730;56.950;24.126;2022-11-20T10:17:22;26.05;;;12.40;;
65145;SDS011;51730;56.950;24.126;2022-11-20T10:25:38;28.30;;;12.75;;
65145;SDS011;51730;56.950;24.126;2022-11-20T10:30:44;24.27;;;12.32;;
65145;SDS011;51730;56.950;24.126;2022-11-20T10:33:15;29.40;;;12.77;;
65145;SDS011;51730;56.950;24.126;2022-11-20T10:36:01;27.30;;;13.07;;
65145;SDS011;51730;56.950;24.126;2022-11-20T10:38:44;24.50;;;11.93;;
65145;SDS011;51730;56.950;24.126;2022-11-20T10:41:19;24.13;;;12.48;;
65145;SDS011;51730;56.950;24.126;2022-11-20T10:46:39;31.30;;;16.30;;
65145;SDS011;51730;56.950;24.126;2022-11-20T10:49:12;29.48;;;14.15;;
65145;SDS011;51730;56.950;24.126;2022-11-20T10:52:09;28.20;;;13.98;;
65145;SDS011;51730;56.950;24.126;2022-11-20T10:54:49;31.02;;;13.80;;
65145;SDS011;51730;56.950;24.126;2022-11-20T11:02:42;31.25;;;15.02;;
65145;SDS011;51730;56.950;24.126;2022-11-20T11:05:20;28.80;;;13.35;;
65145;SDS011;51730;56.950;24.126;2022-11-20T11:08:17;29.17;;;14.57;;
65145;SDS011;51730;56.950;24.126;2022-11-20T11:10:58;31.48;;;14.82;;
65145;SDS011;51730;56.950;24.126;2022-11-20T11:13:31;27.95;;;13.05;;
65145;SDS011;51730;56.950;24.126;2022-11-20T11:15:57;29.02;;;14.05;;
65145;SDS011;51730;56.950;24.126;2022-11-20T11:18:28;29.10;;;16.15;;
65145;SDS011;51730;56.950;24.126;2022-11-20T11:20:59;30.58;;;14.30;;
65145;SDS011;51730;56.950;24.126;2022-11-20T11:26:04;37.58;;;16.88;;
65145;SDS011;51730;56.950;24.126;2022-11-20T11:28:34;27.85;;;13.38;;
65145;SDS011;51730;56.950;24.126;2022-11-20T11:31:01;25.83;;;13.15;;
65145;SDS011;51730;56.950;24.126;2022-11-20T11:33:29;28.60;;;14.63;;
65145;SDS011;51730;56.950;24.126;2022-11-20T11:35:58;28.85;;;14.02;;
65145;SDS011;51730;56.950;24.126;2022-11-20T11:38:29;33.22;;;15.07;;
65145;SDS011;51730;56.950;24.126;2022-11-20T11:41:00;32.40;;;14.48;;
65145;SDS011;51730;56.950;24.126;2022-11-20T11:43:29;34.88;;;15.43;;
65145;SDS011;51730;56.950;24.126;2022-11-20T11:46:27;33.75;;;15.93;;
65145;SDS011;51730;56.950;24.126;2022-11-20T11:48:58;36.53;;;15.63;;
65145;SDS011;51730;56.950;24.126;2022-11-20T11:57:00;31.83;;;14.45;;
65145;SDS011;51730;56.950;24.126;2022-11-20T12:02:27;27.60;;;12.93;;
65145;SDS011;51730;56.950;24.126;2022-11-20T12:04:57;29.80;;;13.35;;
65145;SDS011;51730;56.950;24.126;2022-11-20T12:07:47;28.85;;;13.82;;
65145;SDS011;51730;56.950;24.126;2022-11-20T12:10:51;27.20;;;12.23;;
65145;SDS011;51730;56.950;24.126;2022-11-20T12:16:15;26.88;;;12.85;;
65145;SDS011;51730;56.950;24.126;2022-11-20T12:18:45;32.88;;;14.15;;
65145;SDS011;51730;56.950;24.126;2022-11-20T12:21:19;25.35;;;12.05;;
65145;SDS011;51730;56.950;24.126;2022-11-20T12:28:55;31.02;;;13.63;;
65145;SDS011;51730;56.950;24.126;2022-11-20T12:37:39;28.52;;;13.60;;
65145;SDS011;51730;56.950;24.126;2022-11-20T12:40:39;31.10;;;13.95;;
65145;SDS011;51730;56.950;24.126;2022-11-20T12:43:21;28.10;;;11.88;;
65145;SDS011;51730;56.950;24.126;2022-11-20T13:00:07;30.92;;;14.18;;
65145;SDS011;51730;56.950;24.126;2022-11-20T13:08:02;29.25;;;12.35;;
65145;SDS011;51730;56.950;24.126;2022-11-20T13:10:33;21.70;;;11.35;;
65145;SDS011;51730;56.950;24.126;2022-11-20T13:16:07;28.38;;;12.75;;
65145;SDS011;51730;56.950;24.126;2022-11-20T13:18:42;28.55;;;13.18;;
65145;SDS011;51730;56.950;24.126;2022-11-20T13:21:18;25.23;;;11.68;;
65145;SDS011;51730;56.950;24.126;2022-11-20T13:24:07;27.45;;;12.55;;
65145;SDS011;51730;56.950;24.126;2022-11-20T13:30:00;28.27;;;12.65;;
65145;SDS011;51730;56.950;24.126;2022-11-20T13:32:48;24.60;;;12.07;;
65145;SDS011;51730;56.950;24.126;2022-11-20T13:38:05;25.00;;;12.43;;
65145;SDS011;51730;56.950;24.126;2022-11-20T13:40:33;30.55;;;13.82;;
65145;SDS011;51730;56.950;24.126;2022-11-20T13:43:07;31.05;;;13.07;;
65145;SDS011;51730;56.950;24.126;2022-11-20T13:45:34;39.95;;;14.73;;
65145;SDS011;51730;56.950;24.126;2022-11-20T13:48:03;34.33;;;14.27;;
65145;SDS011;51730;56.950;24.126;2022-11-20T13:50:53;29.58;;;12.32;;
65145;SDS011;51730;56.950;24.126;2022-11-20T13:53:34;24.58;;;12.80;;
65145;SDS011;51730;56.950;24.126;2022-11-20T14:01:52;28.90;;;12.52;;
65145;SDS011;51730;56.950;24.126;2022-11-20T14:04:27;26.17;;;12.35;;
65145;SDS011;51730;56.950;24.126;2022-11-20T14:06:56;30.25;;;12.82;;
65145;SDS011;51730;56.950;24.126;2022-11-20T14:09:25;27.67;;;12.38;;
65145;SDS011;51730;56.950;24.126;2022-11-20T14:11:52;24.92;;;11.55;;
65145;SDS011;51730;56.950;24.126;2022-11-20T14:14:20;19.55;;;8.63;;
65145;SDS011;51730;56.950;24.126;2022-11-20T14:16:49;27.50;;;12.27;;
65145;SDS011;51730;56.950;24.126;2022-11-20T14:21:50;27.05;;;11.60;;
65145;SDS011;51730;56.950;24.126;2022-11-20T14:24:20;23.77;;;10.32;;
65145;SDS011;51730;56.950;24.126;2022-11-20T14:26:49;25.67;;;11.73;;
65145;SDS011;51730;56.950;24.126;2022-11-20T14:29:22;27.25;;;11.65;;
65145;SDS011;51730;56.950;24.126;2022-11-20T14:31:53;24.27;;;11.35;;
65145;SDS011;51730;56.950;24.126;2022-11-20T14:34:22;27.88;;;13.00;;
65145;SDS011;51730;56.950;24.126;2022-11-20T14:36:59;30.55;;;13.25;;
65145;SDS011;51730;56.950;24.126;2022-11-20T14:42:14;26.08;;;13.40;;
65145;SDS011;51730;56.950;24.126;2022-11-20T14:44:43;30.90;;;13.50;;
65145;SDS011;51730;56.950;24.126;2022-11-20T14:47:12;33.60;;;14.38;;
65145;SDS011;51730;56.950;24.126;2022-11-20T14:49:41;30.23;;;12.90;;
65145;SDS011;51730;56.950;24.126;2022-11-20T14:52:13;26.10;;;12.65;;
65145;SDS011;51730;56.950;24.126;2022-11-20T14:54:46;30.10;;;13.90;;
65145;SDS011;51730;56.950;24.126;2022-11-20T14:57:24;27.20;;;13.75;;
65145;SDS011;51730;56.950;24.126;2022-11-20T15:02:41;18.15;;;9.02;;
65145;SDS011;51730;56.950;24.126;2022-11-20T15:05:09;28.30;;;11.63;;
65145;SDS011;51730;56.950;24.126;2022-11-20T15:07:37;26.98;;;12.52;;
65145;SDS011;51730;56.950;24.126;2022-11-20T15:10:27;24.02;;;11.45;;
65145;SDS011;51730;56.950;24.126;2022-11-20T15:12:55;27.40;;;13.25;;
65145;SDS011;51730;56.950;24.126;2022-11-20T15:18:01;27.58;;;13.68;;
65145;SDS011;51730;56.950;24.126;2022-11-20T15:20:30;31.20;;;13.48;;
65145;SDS011;51730;56.950;24.126;2022-11-20T15:22:58;25.90;;;11.73;;
65145;SDS011;51730;56.950;24.126;2022-11-20T15:25:25;28.33;;;11.13;;
65145;SDS011;51730;56.950;24.126;2022-11-20T15:27:54;23.40;;;11.18;;
65145;SDS011;51730;56.950;24.126;2022-11-20T15:30:22;24.73;;;12.13;;
65145;SDS011;51730;56.950;24.126;2022-11-20T15:32:50;31.73;;;12.85;;
65145;SDS011;51730;56.950;24.126;2022-11-20T15:35:17;23.38;;;11.48;;
65145;SDS011;51730;56.950;24.126;2022-11-20T15:37:44;25.08;;;10.98;;
65145;SDS011;51730;56.950;24.126;2022-11-20T15:40:11;20.98;;;10.32;;
65145;SDS011;51730;56.950;24.126;2022-11-20T15:42:38;25.45;;;11.77;;
65145;SDS011;51730;56.950;24.126;2022-11-20T15:45:25;28.88;;;12.65;;
65145;SDS011;51730;56.950;24.126;2022-11-20T15:47:54;23.20;;;11.48;;
65145;SDS011;51730;56.950;24.126;2022-11-20T15:50:21;25.33;;;11.35;;
65145;SDS011;51730;56.950;24.126;2022-11-20T15:52:51;23.83;;;12.80;;
65145;SDS011;51730;56.950;24.126;2022-11-20T15:55:18;25.08;;;12.52;;
65145;SDS011;51730;56.950;24.126;2022-11-20T15:57:45;25.40;;;12.40;;
65145;SDS011;51730;56.950;24.126;2022-11-20T16:00:12;14.45;;;5.85;;
65145;SDS011;51730;56.950;24.126;2022-11-20T16:02:47;24.75;;;10.77;;
65145;SDS011;51730;56.950;24.126;2022-11-20T16:05:14;20.92;;;10.10;;
65145;SDS011;51730;56.950;24.126;2022-11-20T16:07:41;22.35;;;10.18;;
65145;SDS011;51730;56.950;24.126;2022-11-20T16:10:08;21.33;;;11.35;;
65145;SDS011;51730;56.950;24.126;2022-11-20T16:12:35;21.55;;;11.45;;
65145;SDS011;51730;56.950;24.126;2022-11-20T16:15:22;21.67;;;10.27;;
65145;SDS011;51730;56.950;24.126;2022-11-20T16:18:08;19.65;;;9.93;;
65145;SDS011;51730;56.950;24.126;2022-11-20T16:20:37;23.67;;;10.82;;
65145;SDS011;51730;56.950;24.126;2022-11-20T16:23:04;22.60;;;11.13;;
65145;SDS011;51730;56.950;24.126;2022-11-20T16:25:32;25.65;;;10.85;;
65145;SDS011;51730;56.950;24.126;2022-11-20T16:27:59;22.98;;;10.95;;
65145;SDS011;51730;56.950;24.126;2022-11-20T16:30:26;21.90;;;11.20;;